DCATA LOLH-EDDM
Flight info
| Callsign | DCATA |
|---|---|
| Flight time | N/A |
| Altitude | 8000 |
| Route | VFR SUBEN T161 NENUM DCT NAPSA NAPSA1B |
| Aircraft | DA62/L-SDFGRY/C |
Departure
| Time | 2026-05-05 19:54 |
|---|---|
| Airport | Hofkirchen Airfield (LOLH) |
Arrival
| Time | N/A |
|---|---|
| Airport | Munich Airport (EDDM) |
| Time | Latitude | Longitude | Altitude | Speed | Heading |
|---|---|---|---|---|---|
| 2026-05-05 19:31 | 48.13959 | 14.33351 | 1169 ft | 0 kts | 259° |
| 2026-05-05 19:51 | 48.13939 | 14.33337 | 1169 ft | 8 kts | 180° |
| 2026-05-05 19:51 | 48.13890 | 14.33398 | 1169 ft | 16 kts | 89° |
| 2026-05-05 19:52 | 48.13907 | 14.33546 | 1169 ft | 23 kts | 83° |
| 2026-05-05 19:52 | 48.13929 | 14.33761 | 1169 ft | 17 kts | 83° |
| 2026-05-05 19:52 | 48.13938 | 14.33891 | 1169 ft | 4 kts | 41° |
| 2026-05-05 19:52 | 48.13945 | 14.33871 | 1169 ft | 0 kts | 261° |
| 2026-05-05 19:53 | 48.13945 | 14.33870 | 1169 ft | 0 kts | 260° |
| 2026-05-05 19:53 | 48.13918 | 14.33665 | 1169 ft | 56 kts | 258° |
| 2026-05-05 19:53 | 48.13817 | 14.32888 | 1307 ft | 83 kts | 253° |
| 2026-05-05 19:53 | 48.13623 | 14.32034 | 1547 ft | 89 kts | 249° |
| 2026-05-05 19:54 | 48.13515 | 14.31140 | 1771 ft | 95 kts | 263° |
| 2026-05-05 19:54 | 48.13448 | 14.30130 | 1976 ft | 101 kts | 264° |
| 2026-05-05 19:54 | 48.13406 | 14.29047 | 2178 ft | 106 kts | 272° |
| 2026-05-05 19:54 | 48.13421 | 14.27942 | 2375 ft | 110 kts | 272° |
| 2026-05-05 19:55 | 48.13450 | 14.26777 | 2579 ft | 113 kts | 276° |
| 2026-05-05 19:55 | 48.13524 | 14.25591 | 2780 ft | 115 kts | 278° |
| 2026-05-05 19:55 | 48.13597 | 14.24389 | 2975 ft | 117 kts | 277° |
| 2026-05-05 19:55 | 48.13670 | 14.23185 | 3165 ft | 118 kts | 280° |
| 2026-05-05 19:56 | 48.14025 | 14.22106 | 3363 ft | 114 kts | 311° |
| 2026-05-05 19:56 | 48.14475 | 14.21125 | 3517 ft | 120 kts | 303° |
| 2026-05-05 19:56 | 48.14897 | 14.19950 | 3499 ft | 141 kts | 302° |
| 2026-05-05 19:56 | 48.15395 | 14.18578 | 3551 ft | 155 kts | 301° |
| 2026-05-05 19:57 | 48.15859 | 14.17069 | 3556 ft | 164 kts | 297° |
| 2026-05-05 19:57 | 48.16179 | 14.16027 | 3553 ft | 165 kts | 297° |
| 2026-05-05 19:57 | 48.16811 | 14.13941 | 3545 ft | 165 kts | 297° |
| 2026-05-05 19:57 | 48.17287 | 14.12365 | 3545 ft | 166 kts | 297° |
| 2026-05-05 19:58 | 48.17764 | 14.10793 | 3547 ft | 166 kts | 298° |
| 2026-05-05 19:58 | 48.18239 | 14.09222 | 3548 ft | 166 kts | 297° |
| 2026-05-05 19:58 | 48.18720 | 14.07634 | 3545 ft | 166 kts | 298° |
| 2026-05-05 19:58 | 48.19233 | 14.06095 | 3562 ft | 164 kts | 300° |
| 2026-05-05 19:59 | 48.19722 | 14.04651 | 3808 ft | 152 kts | 301° |
| 2026-05-05 19:59 | 48.20194 | 14.03257 | 4045 ft | 146 kts | 301° |
| 2026-05-05 19:59 | 48.20640 | 14.01935 | 4283 ft | 141 kts | 301° |
| 2026-05-05 19:59 | 48.21071 | 14.00643 | 4523 ft | 138 kts | 301° |
| 2026-05-05 20:00 | 48.21495 | 13.99370 | 4764 ft | 135 kts | 301° |
| 2026-05-05 20:00 | 48.21912 | 13.98121 | 5005 ft | 133 kts | 301° |
| 2026-05-05 20:00 | 48.22325 | 13.96880 | 5248 ft | 131 kts | 301° |
| 2026-05-05 20:00 | 48.22724 | 13.95665 | 5492 ft | 130 kts | 301° |
| 2026-05-05 20:01 | 48.23121 | 13.94463 | 5739 ft | 129 kts | 300° |
| 2026-05-05 20:01 | 48.23552 | 13.93292 | 5981 ft | 126 kts | 314° |
| 2026-05-05 20:01 | 48.24131 | 13.92329 | 6228 ft | 124 kts | 318° |
| 2026-05-05 20:01 | 48.24720 | 13.91388 | 6475 ft | 124 kts | 319° |
| 2026-05-05 20:02 | 48.25307 | 13.90453 | 6722 ft | 123 kts | 319° |
| 2026-05-05 20:02 | 48.25770 | 13.89385 | 6970 ft | 128 kts | 285° |
| 2026-05-05 20:02 | 48.25657 | 13.88071 | 7233 ft | 128 kts | 246° |
| 2026-05-05 20:02 | 48.25269 | 13.86870 | 7482 ft | 128 kts | 242° |
| 2026-05-05 20:03 | 48.24860 | 13.85692 | 7728 ft | 129 kts | 242° |
| 2026-05-05 20:03 | 48.24614 | 13.84436 | 7969 ft | 127 kts | 272° |
| 2026-05-05 20:03 | 48.24627 | 13.83110 | 8223 ft | 127 kts | 275° |
| 2026-05-05 20:03 | 48.24659 | 13.81762 | 8466 ft | 130 kts | 276° |
| 2026-05-05 20:04 | 48.24699 | 13.80365 | 8531 ft | 140 kts | 276° |
| 2026-05-05 20:04 | 48.24744 | 13.78845 | 8539 ft | 150 kts | 275° |
| 2026-05-05 20:04 | 48.24797 | 13.77267 | 8536 ft | 155 kts | 276° |
| 2026-05-05 20:04 | 48.24853 | 13.75625 | 8533 ft | 160 kts | 276° |
| 2026-05-05 20:05 | 48.24913 | 13.73934 | 8532 ft | 162 kts | 276° |
| 2026-05-05 20:05 | 48.24978 | 13.72248 | 8531 ft | 164 kts | 276° |
| 2026-05-05 20:05 | 48.25044 | 13.70529 | 8528 ft | 165 kts | 276° |
| 2026-05-05 20:05 | 48.25108 | 13.68801 | 8530 ft | 166 kts | 276° |
| 2026-05-05 20:06 | 48.25174 | 13.67070 | 8527 ft | 166 kts | 276° |
| 2026-05-05 20:06 | 48.25237 | 13.65337 | 8529 ft | 170 kts | 276° |
| 2026-05-05 20:06 | 48.25306 | 13.63532 | 8530 ft | 176 kts | 276° |
| 2026-05-05 20:06 | 48.25378 | 13.61683 | 8529 ft | 180 kts | 276° |
| 2026-05-05 20:07 | 48.25454 | 13.59773 | 8516 ft | 183 kts | 276° |
| 2026-05-05 20:07 | 48.25532 | 13.57862 | 8504 ft | 185 kts | 276° |
| 2026-05-05 20:07 | 48.25612 | 13.55912 | 8498 ft | 186 kts | 276° |
| 2026-05-05 20:07 | 48.25670 | 13.54000 | 8489 ft | 182 kts | 268° |
| 2026-05-05 20:08 | 48.25299 | 13.52245 | 8304 ft | 177 kts | 249° |
| 2026-05-05 20:08 | 48.24839 | 13.50524 | 8058 ft | 175 kts | 248° |
| 2026-05-05 20:08 | 48.24382 | 13.48843 | 7561 ft | 182 kts | 248° |
| 2026-05-05 20:08 | 48.23901 | 13.47059 | 6998 ft | 188 kts | 248° |
| 2026-05-05 20:09 | 48.23422 | 13.45264 | 6574 ft | 185 kts | 248° |
| 2026-05-05 20:09 | 48.22958 | 13.43492 | 6151 ft | 180 kts | 248° |
| 2026-05-05 20:09 | 48.22515 | 13.41786 | 5734 ft | 177 kts | 248° |
| 2026-05-05 20:09 | 48.22064 | 13.40061 | 5308 ft | 176 kts | 248° |
| 2026-05-05 20:10 | 48.21621 | 13.38362 | 4888 ft | 175 kts | 248° |
| 2026-05-05 20:10 | 48.21186 | 13.36696 | 4473 ft | 174 kts | 248° |
| 2026-05-05 20:10 | 48.20869 | 13.34956 | 4038 ft | 174 kts | 271° |
| 2026-05-05 20:10 | 48.20860 | 13.33157 | 3622 ft | 173 kts | 271° |
| 2026-05-05 20:11 | 48.21102 | 13.31424 | 3196 ft | 172 kts | 285° |
| 2026-05-05 20:11 | 48.21372 | 13.29702 | 2917 ft | 171 kts | 286° |
| 2026-05-05 20:11 | 48.21819 | 13.28101 | 2653 ft | 165 kts | 317° |
| 2026-05-05 20:11 | 48.22796 | 13.27398 | 2388 ft | 153 kts | 2° |
| 2026-05-05 20:12 | 48.23738 | 13.27903 | 2133 ft | 143 kts | 46° |
| 2026-05-05 20:12 | 48.24091 | 13.29170 | 2109 ft | 129 kts | 82° |
| 2026-05-05 20:12 | 48.23914 | 13.30421 | 2110 ft | 118 kts | 108° |
| 2026-05-05 20:12 | 48.23420 | 13.31297 | 2124 ft | 109 kts | 142° |
| 2026-05-05 20:13 | 48.22697 | 13.31655 | 1814 ft | 110 kts | 156° |
| 2026-05-05 20:13 | 48.22161 | 13.32140 | 1693 ft | 80 kts | 117° |
| 2026-05-05 20:13 | 48.21862 | 13.32799 | 1599 ft | 72 kts | 110° |
| 2026-05-05 20:13 | 48.21611 | 13.33485 | 1524 ft | 77 kts | 110° |
| 2026-05-05 20:14 | 48.21367 | 13.34172 | 1382 ft | 65 kts | 108° |
| 2026-05-05 20:14 | 48.21203 | 13.34634 | 1369 ft | 22 kts | 119° |
| 2026-05-05 20:14 | 48.21179 | 13.34701 | 1370 ft | 9 kts | 117° |
| 2026-05-05 20:14 | 48.21129 | 13.34806 | 1372 ft | 0 kts | 170° |
| 2026-05-05 20:15 | 48.21117 | 13.34750 | 1372 ft | 8 kts | 300° |
| 2026-05-05 20:15 | 48.21146 | 13.34681 | 1370 ft | 7 kts | 300° |
| 2026-05-05 20:15 | 48.21160 | 13.34648 | 1369 ft | 0 kts | 300° |
| 2026-05-05 20:15 | 48.21160 | 13.34638 | 1369 ft | 0 kts | 265° |
| 2026-05-05 20:16 | 48.21166 | 13.34623 | 1369 ft | 3 kts | 14° |
| 2026-05-05 20:16 | 48.21168 | 13.34632 | 1369 ft | 0 kts | 116° |
| 2026-05-05 20:16 | 48.21161 | 13.34647 | 1369 ft | 6 kts | 117° |
| 2026-05-05 20:16 | 48.21183 | 13.34674 | 1369 ft | 5 kts | 315° |
| 2026-05-05 20:17 | 48.21195 | 13.34614 | 1369 ft | 0 kts | 239° |
| 2026-05-05 20:17 | 48.21173 | 13.34612 | 1369 ft | 3 kts | 152° |
| 2026-05-05 20:17 | 48.21166 | 13.34621 | 1369 ft | 0 kts | 119° |
| 2026-05-05 20:17 | 48.21166 | 13.34624 | 1369 ft | 1 kts | 117° |
| 2026-05-05 20:18 | 48.21165 | 13.34626 | 1369 ft | 0 kts | 117° |